METAR Data
IDs: Format: Raw Decoded Include TAF

Data at: 2020 UTC 26 Sep 2021

LJCE 262000Z AUTO VRB02KT 9999 -SHRA NSC 19/17 Q1017